Time;durP1;ratioP1;P1;durP2;ratioP2;P2;SDS_P1;SDS_P2;PMS_P1;PMS_P2;Temp;Humidity;BMP_temperature;BMP_pressure;BME280_temperature;BME280_humidity;BME280_pressure;Samples;Min_cycle;Max_cycle;Signal;HPM_P1;HPM_P2
2023/12/23 00:00:31;;;;;;;10.13;3.40;;;;;4.70;93392.00;;;;7402249;19;20155;-77
2023/12/23 00:03:06;;;;;;;6.73;2.93;;;;;4.80;93402.00;;;;7403744;19;20218;-77
2023/12/23 00:05:39;;;;;;;10.23;3.13;;;;;4.70;93415.00;;;;7401896;19;20125;-78
2023/12/23 00:08:14;;;;;;;7.33;2.80;;;;;4.80;93398.00;;;;7403999;19;20129;-75
2023/12/23 00:10:42;;;;;;;7.63;2.47;;;;;4.80;93397.00;;;;7402804;19;20152;-76
2023/12/23 00:13:16;;;;;;;11.53;3.17;;;;;4.70;93377.00;;;;7401261;19;20136;-76
2023/12/23 00:15:45;;;;;;;12.90;3.67;;;;;4.80;93396.00;;;;7402218;19;20161;-76
2023/12/23 00:18:20;;;;;;;7.67;3.13;;;;;4.80;93424.00;;;;7401547;19;20163;-75
2023/12/23 00:20:48;;;;;;;7.83;2.97;;;;;4.70;93404.00;;;;7401462;19;20145;-76
2023/12/23 00:23:29;;;;;;;8.93;2.33;;;;;4.70;93412.00;;;;7400345;19;20156;-78
2023/12/23 00:26:10;;;;;;;8.10;2.37;;;;;4.70;93415.00;;;;7401615;19;20144;-77
2023/12/23 00:28:38;;;;;;;8.47;2.50;;;;;4.80;93413.00;;;;7401835;19;20141;-76
2023/12/23 00:31:11;;;;;;;6.57;2.43;;;;;4.70;93424.00;;;;7400597;19;20212;-76
2023/12/23 00:33:47;;;;;;;7.73;2.40;;;;;4.80;93436.00;;;;7402666;19;20166;-79
2023/12/23 00:36:22;;;;;;;7.83;2.50;;;;;4.60;93444.00;;;;7402389;19;20647;-77
2023/12/23 00:38:49;;;;;;;6.67;2.67;;;;;4.60;93443.00;;;;7401259;19;20592;-76
2023/12/23 00:41:24;;;;;;;8.77;2.80;;;;;4.70;93446.00;;;;7399320;19;20151;-78
2023/12/23 00:43:51;;;;;;;5.97;2.20;;;;;4.60;93456.00;;;;7402885;19;20573;-77
2023/12/23 00:46:20;;;;;;;5.83;2.27;;;;;4.60;93473.00;;;;7402417;19;20527;-78
2023/12/23 00:48:55;;;;;;;11.07;2.47;;;;;4.70;93476.00;;;;7396987;19;20152;-77
2023/12/23 00:51:22;;;;;;;9.57;2.30;;;;;4.70;93476.00;;;;7393986;19;20589;-80
2023/12/23 00:53:56;;;;;;;5.80;2.07;;;;;4.70;93484.00;;;;7401727;19;20155;-80
2023/12/23 00:56:24;;;;;;;4.37;1.67;;;;;4.80;93479.00;;;;7401318;19;20707;-75
2023/12/23 00:58:58;;;;;;;4.87;2.20;;;;;4.70;93455.00;;;;7400142;19;20597;-78
2023/12/23 01:01:27;;;;;;;5.73;2.27;;;;;4.60;93478.00;;;;7401119;19;20144;-79
2023/12/23 01:04:02;;;;;;;5.00;2.43;;;;;4.70;93456.00;;;;7402370;19;20137;-78
2023/12/23 01:06:29;;;;;;;10.93;2.80;;;;;4.70;93499.00;;;;7400180;19;20618;-77
2023/12/23 01:09:04;;;;;;;5.93;3.30;;;;;4.60;93503.00;;;;7400674;19;20631;-79
2023/12/23 01:11:32;;;;;;;9.33;2.60;;;;;4.70;93482.00;;;;7401597;19;20148;-78
2023/12/23 01:14:06;;;;;;;7.70;2.50;;;;;4.60;93517.00;;;;7400179;19;20474;-78
2023/12/23 01:16:33;;;;;;;7.03;2.53;;;;;4.60;93526.00;;;;7398998;19;20156;-78
2023/12/23 01:19:07;;;;;;;10.77;3.10;;;;;4.60;93518.00;;;;7400241;19;20149;-77
2023/12/23 01:21:36;;;;;;;12.70;3.13;;;;;4.60;93520.00;;;;7402861;19;20125;-78
2023/12/23 01:24:17;;;;;;;7.70;3.30;;;;;4.60;93506.00;;;;7398892;19;20533;-78
2023/12/23 01:26:52;;;;;;;10.40;3.13;;;;;4.60;93504.00;;;;7399795;19;20156;-76
2023/12/23 01:29:26;;;;;;;8.83;3.77;;;;;4.60;93530.00;;;;7401786;19;20490;-76
2023/12/23 01:31:54;;;;;;;11.73;3.80;;;;;4.70;93530.00;;;;7400238;19;20137;-77
2023/12/23 01:34:28;;;;;;;9.27;4.27;;;;;4.60;93522.00;;;;7399878;19;20125;-76
2023/12/23 01:37:02;;;;;;;10.40;3.83;;;;;4.60;93552.00;;;;7398677;19;20486;-78
2023/12/23 01:39:36;;;;;;;11.60;3.93;;;;;4.70;93543.00;;;;7400585;19;20611;-76
2023/12/23 01:42:10;;;;;;;11.07;3.83;;;;;4.60;93548.00;;;;7398531;19;20527;-77
2023/12/23 01:44:44;;;;;;;7.40;3.30;;;;;4.60;93560.00;;;;7399253;19;20547;-78
2023/12/23 01:47:12;;;;;;;5.47;2.80;;;;;4.60;93559.00;;;;7399982;19;20480;-79
2023/12/23 01:49:48;;;;;;;5.60;2.77;;;;;4.60;93549.00;;;;7399250;19;20136;-78
2023/12/23 01:52:16;;;;;;;5.80;2.50;;;;;4.60;93566.00;;;;7400685;19;20145;-76
2023/12/23 01:54:44;;;;;;;7.97;3.13;;;;;4.60;93526.00;;;;7399041;19;20144;-78
2023/12/23 01:57:18;;;;;;;6.77;3.30;;;;;4.70;93545.00;;;;7401191;19;20124;-77
2023/12/23 01:59:53;;;;;;;8.47;3.03;;;;;4.60;93568.00;;;;7398911;19;20139;-77
2023/12/23 02:02:28;;;;;;;11.10;3.27;;;;;4.60;93562.00;;;;7400301;19;20144;-78
2023/12/23 02:04:57;;;;;;;7.90;2.73;;;;;4.60;93571.00;;;;7399477;19;20629;-76
2023/12/23 02:07:35;;;;;;;4.97;2.03;;;;;4.60;93565.00;;;;7398603;19;20154;-72
2023/12/23 02:10:03;;;;;;;5.33;2.17;;;;;4.60;93574.00;;;;7397764;19;20146;-74
2023/12/23 02:12:54;;;;;;;4.63;2.27;;;;;4.60;93561.00;;;;7398395;19;20192;-76
2023/12/23 02:15:41;;;;;;;4.67;2.10;;;;;4.70;93582.00;;;;7399293;19;20133;-73
2023/12/23 02:18:14;;;;;;;5.17;1.83;;;;;4.60;93588.00;;;;7398763;19;20175;-73
2023/12/23 02:20:46;;;;;;;5.27;1.87;;;;;4.60;93581.00;;;;7398377;19;20161;-75
2023/12/23 02:23:27;;;;;;;4.10;2.37;;;;;4.50;93589.00;;;;7396404;19;20168;-74
2023/12/23 02:26:10;;;;;;;5.77;1.87;;;;;4.60;93572.00;;;;7399222;19;20154;-75
2023/12/23 02:28:51;;;;;;;3.97;2.60;;;;;4.50;93598.00;;;;7399772;19;20140;-74
2023/12/23 02:31:22;;;;;;;4.50;2.53;;;;;4.50;93592.00;;;;7397741;19;20600;-75
2023/12/23 02:33:59;;;;;;;6.87;2.83;;;;;4.50;93602.00;;;;7395324;19;20129;-75
2023/12/23 02:36:32;;;;;;;8.13;3.60;;;;;4.50;93564.00;;;;7397496;19;20470;-71
2023/12/23 02:39:06;;;;;;;8.80;3.20;;;;;4.60;93568.00;;;;7396926;19;20178;-73
2023/12/23 02:41:34;;;;;;;10.37;3.60;;;;;4.50;93584.00;;;;7398949;19;20154;-74
2023/12/23 02:44:08;;;;;;;11.53;3.43;;;;;4.50;93586.00;;;;7398302;19;20135;-74
2023/12/23 02:46:42;;;;;;;7.80;2.80;;;;;4.50;93562.00;;;;7397189;19;20133;-74
2023/12/23 02:49:16;;;;;;;7.63;2.67;;;;;4.40;93577.00;;;;7397652;19;20132;-73
2023/12/23 02:51:52;;;;;;;9.30;3.00;;;;;4.50;93566.00;;;;7404946;19;20137;-73
2023/12/23 02:54:19;;;;;;;4.70;2.83;;;;;4.40;93581.00;;;;7401917;19;20133;-72
2023/12/23 02:56:53;;;;;;;10.00;3.23;;;;;4.40;93593.00;;;;7404789;19;20485;-74
2023/12/23 02:59:21;;;;;;;11.20;3.20;;;;;4.50;93598.00;;;;7405139;19;21337;-74
2023/12/23 03:01:55;;;;;;;8.10;3.23;;;;;4.40;93583.00;;;;7406069;19;20132;-75
2023/12/23 03:04:23;;;;;;;6.70;2.90;;;;;4.50;93584.00;;;;7404470;19;20174;-72
2023/12/23 03:06:57;;;;;;;8.43;3.00;;;;;4.50;93578.00;;;;7403982;19;20219;-73
2023/12/23 03:09:34;;;;;;;5.63;3.23;;;;;4.40;93571.00;;;;7402831;19;20171;-72
2023/12/23 03:12:02;;;;;;;8.77;3.47;;;;;4.50;93578.00;;;;7404232;19;20587;-73
2023/12/23 03:14:30;;;;;;;11.80;2.93;;;;;4.50;93588.00;;;;7401406;19;20154;-73
2023/12/23 03:17:04;;;;;;;9.23;2.90;;;;;4.40;93589.00;;;;7405902;19;20128;-75
2023/12/23 03:19:32;;;;;;;5.37;2.80;;;;;4.40;93586.00;;;;7403672;19;20468;-71
2023/12/23 03:22:07;;;;;;;7.03;3.20;;;;;4.40;93588.00;;;;7405180;19;20518;-73
2023/12/23 03:24:34;;;;;;;8.40;3.53;;;;;4.50;93591.00;;;;7398629;19;20168;-74
2023/12/23 03:27:08;;;;;;;10.77;3.27;;;;;4.50;93583.00;;;;7400816;19;20149;-72
2023/12/23 03:29:42;;;;;;;6.67;3.23;;;;;4.40;93575.00;;;;7400632;19;20505;-74
2023/12/23 03:32:16;;;;;;;8.60;2.97;;;;;4.50;93588.00;;;;7402048;19;20161;-73
2023/12/23 03:34:44;;;;;;;12.00;3.47;;;;;4.50;93583.00;;;;7399142;19;20204;-74
2023/12/23 03:37:12;;;;;;;7.23;3.00;;;;;4.50;93577.00;;;;7401069;19;20637;-75
2023/12/23 03:39:46;;;;;;;7.10;2.77;;;;;4.40;93588.00;;;;7399888;19;20172;-74
2023/12/23 03:42:20;;;;;;;3.90;2.57;;;;;4.40;93569.00;;;;7400619;19;20157;-76
2023/12/23 03:44:54;;;;;;;6.80;3.23;;;;;4.50;93571.00;;;;7400205;19;20615;-74
2023/12/23 03:47:23;;;;;;;8.67;3.40;;;;;4.50;93597.00;;;;7399903;19;20140;-74
2023/12/23 03:49:56;;;;;;;7.27;3.10;;;;;4.40;93588.00;;;;7399994;19;20580;-73
2023/12/23 03:52:24;;;;;;;8.70;3.30;;;;;4.50;93563.00;;;;7400093;19;20477;-73
2023/12/23 03:54:58;;;;;;;8.40;3.20;;;;;4.40;93557.00;;;;7400213;19;20210;-74
2023/12/23 03:57:26;;;;;;;4.93;2.90;;;;;4.40;93508.00;;;;7400270;19;20161;-73
2023/12/23 04:00:01;;;;;;;8.73;3.10;;;;;4.50;93540.00;;;;7399347;19;20140;-72
2023/12/23 04:02:28;;;;;;;5.83;3.07;;;;;4.40;93545.00;;;;7400093;19;20183;-74
2023/12/23 04:05:03;;;;;;;7.20;3.73;;;;;4.40;93553.00;;;;7396103;19;20136;-74
2023/12/23 04:07:31;;;;;;;6.67;2.60;;;;;4.40;93550.00;;;;7399610;19;20121;-74
2023/12/23 04:10:05;;;;;;;4.77;2.57;;;;;4.50;93528.00;;;;7399004;19;20139;-74
2023/12/23 04:12:40;;;;;;;10.47;2.60;;;;;4.40;93492.00;;;;7398629;19;20149;-71
2023/12/23 04:15:14;;;;;;;4.77;2.30;;;;;4.40;93518.00;;;;7398760;19;20152;-73
2023/12/23 04:17:42;;;;;;;2.70;2.40;;;;;4.50;93529.00;;;;7399554;19;20132;-73
2023/12/23 04:20:17;;;;;;;5.53;2.17;;;;;4.40;93535.00;;;;7396633;19;20136;-74
2023/12/23 04:22:51;;;;;;;14.30;3.03;;;;;4.30;93541.00;;;;6883946;19;9752537;-74
2023/12/23 04:25:32;;;;;;;3.90;1.70;;;;;4.50;93535.00;;;;7402902;19;20154;-74
2023/12/23 04:27:59;;;;;;;3.20;1.77;;;;;4.40;93542.00;;;;7401324;19;20144;-74
2023/12/23 04:30:34;;;;;;;4.20;1.70;;;;;4.40;93532.00;;;;7402064;19;20148;-74
2023/12/23 04:33:02;;;;;;;7.30;1.70;;;;;4.40;93542.00;;;;7401910;19;20136;-74
2023/12/23 04:35:36;;;;;;;4.17;1.40;;;;;4.30;93543.00;;;;7401381;19;20136;-73
2023/12/23 04:38:11;;;;;;;5.93;1.43;;;;;4.40;93520.00;;;;7401070;19;20627;-75
2023/12/23 04:40:44;;;;;;;6.83;2.00;;;;;4.50;93534.00;;;;7402059;19;20145;-75
2023/12/23 04:43:12;;;;;;;2.03;1.43;;;;;4.40;93525.00;;;;7398154;19;20220;-75
2023/12/23 04:45:41;;;;;;;3.00;1.37;;;;;4.40;93511.00;;;;7399771;19;20471;-75
2023/12/23 04:48:14;;;;;;;4.20;1.57;;;;;4.40;93501.00;;;;7400778;19;20186;-75
2023/12/23 04:50:42;;;;;;;1.90;1.17;;;;;4.30;93505.00;;;;7402013;19;20144;-74
2023/12/23 04:53:17;;;;;;;2.60;1.20;;;;;4.40;93527.00;;;;7401590;19;20136;-75
2023/12/23 04:55:44;;;;;;;4.00;1.20;;;;;4.40;93517.00;;;;7399870;19;20137;-75
2023/12/23 04:58:12;;;;;;;4.63;1.57;;;;;4.50;93534.00;;;;7400706;19;20145;-74
2023/12/23 05:00:47;;;;;;;1.97;1.00;;;;;4.40;93512.00;;;;7401087;19;20196;-74
2023/12/23 05:03:15;;;;;;;2.10;1.00;;;;;4.50;93500.00;;;;7400323;19;20141;-74
2023/12/23 05:05:49;;;;;;;0.97;0.90;;;;;4.50;93512.00;;;;7401504;19;20132;-74
2023/12/23 05:08:23;;;;;;;1.20;0.70;;;;;4.50;93520.00;;;;7399661;19;20532;-73
2023/12/23 05:10:58;;;;;;;2.70;0.70;;;;;4.50;93502.00;;;;7399650;19;20149;-74
2023/12/23 05:13:25;;;;;;;0.87;0.60;;;;;4.40;93488.00;;;;7397584;19;20616;-75
2023/12/23 05:15:59;;;;;;;1.40;0.60;;;;;4.50;93479.00;;;;7401302;19;20452;-74
2023/12/23 05:18:34;;;;;;;0.90;0.80;;;;;4.50;93485.00;;;;7400432;19;20508;-74
2023/12/23 05:21:09;;;;;;;3.07;0.70;;;;;4.50;93499.00;;;;7399374;19;20143;-74
2023/12/23 05:23:43;;;;;;;1.17;0.43;;;;;4.50;93498.00;;;;7397948;19;20229;-74
2023/12/23 05:26:26;;;;;;;1.37;0.70;;;;;4.60;93516.00;;;;7400327;19;20513;-74
2023/12/23 05:29:05;;;;;;;0.93;0.60;;;;;4.50;93519.00;;;;7399176;19;20140;-76
2023/12/23 05:31:39;;;;;;;1.13;0.70;;;;;4.50;93522.00;;;;7399505;19;20132;-73
2023/12/23 05:34:07;;;;;;;2.13;0.93;;;;;4.60;93525.00;;;;7400505;19;20460;-74
2023/12/23 05:36:42;;;;;;;1.30;0.63;;;;;4.60;93516.00;;;;7399496;19;20600;-74
2023/12/23 05:39:16;;;;;;;1.40;0.80;;;;;4.60;93518.00;;;;7398691;19;20604;-73
2023/12/23 05:41:49;;;;;;;2.33;0.90;;;;;4.50;93515.00;;;;7399489;19;20161;-74
2023/12/23 05:44:24;;;;;;;1.30;0.60;;;;;4.60;93517.00;;;;7399859;19;20596;-73
2023/12/23 05:46:59;;;;;;;0.70;0.70;;;;;4.50;93494.00;;;;7399134;19;20137;-74
2023/12/23 05:49:34;;;;;;;0.83;0.63;;;;;4.50;93497.00;;;;7399046;19;20208;-74
2023/12/23 05:52:01;;;;;;;2.27;0.60;;;;;4.50;93495.00;;;;7397476;19;20496;-74
2023/12/23 05:54:36;;;;;;;0.63;0.60;;;;;4.40;93504.00;;;;7397342;19;20519;-74
2023/12/23 05:57:10;;;;;;;1.20;0.80;;;;;4.50;93481.00;;;;7397596;19;20147;-74
2023/12/23 05:59:38;;;;;;;2.47;0.77;;;;;4.50;93506.00;;;;7398798;19;20589;-74
2023/12/23 06:02:14;;;;;;;1.50;0.90;;;;;4.30;93504.00;;;;7397482;19;20174;-75
2023/12/23 06:04:49;;;;;;;2.90;0.57;;;;;4.50;93500.00;;;;7398624;19;20140;-75
2023/12/23 06:07:23;;;;;;;1.30;0.80;;;;;4.50;93500.00;;;;7397430;19;20175;-72
2023/12/23 06:09:50;;;;;;;0.90;0.70;;;;;4.40;93519.00;;;;7391477;19;20548;-74
2023/12/23 06:12:25;;;;;;;1.50;0.80;;;;;4.50;93489.00;;;;7384845;19;20219;-74
2023/12/23 06:14:57;;;;;;;1.27;0.90;;;;;4.40;93506.00;;;;7385520;19;20148;-74
2023/12/23 06:17:33;;;;;;;0.70;0.70;;;;;4.50;93490.00;;;;7385492;19;20140;-73
2023/12/23 06:20:09;;;;;;;0.97;0.53;;;;;4.40;93493.00;;;;7385044;19;20155;-76
2023/12/23 06:22:36;;;;;;;0.53;0.53;;;;;4.40;93497.00;;;;7385834;19;20148;-74
2023/12/23 06:25:16;;;;;;;0.80;0.60;;;;;4.50;93506.00;;;;7386376;19;20488;-73
2023/12/23 06:28:11;;;;;;;2.27;0.40;;;;;4.50;93497.00;;;;7385120;19;20148;-74
2023/12/23 06:30:47;;;;;;;0.80;0.60;;;;;4.40;93515.00;;;;7385684;19;20148;-74
2023/12/23 06:33:22;;;;;;;0.70;0.70;;;;;4.40;93523.00;;;;7385393;19;20225;-76
2023/12/23 06:35:57;;;;;;;1.50;1.10;;;;;4.40;93493.00;;;;7386042;19;20554;-75
2023/12/23 06:38:34;;;;;;;1.03;0.90;;;;;4.50;93498.00;;;;7387326;19;20136;-74
2023/12/23 06:41:03;;;;;;;1.70;1.10;;;;;4.40;93526.00;;;;7386387;19;20133;-74
2023/12/23 06:43:38;;;;;;;1.20;0.73;;;;;4.40;93512.00;;;;7384894;19;20588;-75
2023/12/23 06:46:19;;;;;;;1.00;0.50;;;;;4.50;93519.00;;;;7385980;19;20183;-74
2023/12/23 06:48:54;;;;;;;2.17;0.67;;;;;4.50;93520.00;;;;7385557;19;20195;-75
2023/12/23 06:51:22;;;;;;;0.80;0.70;;;;;4.40;93501.00;;;;7385534;19;20144;-75
2023/12/23 06:53:56;;;;;;;0.53;0.53;;;;;4.40;93517.00;;;;7386598;19;20149;-75
2023/12/23 06:56:24;;;;;;;1.13;0.40;;;;;4.40;93499.00;;;;7385695;19;20153;-76
2023/12/23 06:59:01;;;;;;;0.80;0.40;;;;;4.50;93504.00;;;;7384721;19;20159;-74
2023/12/23 07:01:39;;;;;;;0.30;0.30;;;;;4.40;93516.00;;;;7386013;19;20485;-75
2023/12/23 07:04:14;;;;;;;1.47;0.67;;;;;4.40;93497.00;;;;7385247;19;20145;-75
2023/12/23 07:06:50;;;;;;;1.40;0.53;;;;;4.40;93511.00;;;;7387064;19;20615;-73
2023/12/23 07:09:25;;;;;;;0.67;0.60;;;;;4.30;93494.00;;;;7386716;19;20129;-74
2023/12/23 07:11:59;;;;;;;1.83;0.80;;;;;4.40;93488.00;;;;7384921;19;20149;-76
2023/12/23 07:14:27;;;;;;;0.60;0.53;;;;;4.40;93501.00;;;;7386076;19;20137;-74
2023/12/23 07:17:04;;;;;;;1.20;1.00;;;;;4.40;93508.00;;;;7385698;19;20631;-73
2023/12/23 07:19:32;;;;;;;1.77;1.10;;;;;4.40;93496.00;;;;7385235;19;20159;-74
2023/12/23 07:22:07;;;;;;;2.97;0.80;;;;;4.30;93486.00;;;;7383648;19;20189;-74
2023/12/23 07:24:49;;;;;;;1.23;0.70;;;;;4.40;93506.00;;;;7383518;19;20176;-75
2023/12/23 07:27:16;;;;;;;0.63;0.63;;;;;4.30;93511.00;;;;7385062;19;20156;-76
2023/12/23 07:29:51;;;;;;;0.97;0.90;;;;;4.40;93511.00;;;;7385715;19;20128;-74
2023/12/23 07:32:20;;;;;;;2.53;0.80;;;;;4.40;93501.00;;;;7384090;19;20149;-74
2023/12/23 07:34:55;;;;;;;2.30;0.93;;;;;4.30;93510.00;;;;7386146;19;20487;-75
2023/12/23 07:37:30;;;;;;;0.57;0.33;;;;;4.40;93514.00;;;;7386247;19;20140;-74
2023/12/23 07:40:06;;;;;;;0.30;0.30;;;;;4.40;93507.00;;;;7393322;19;20160;-74
2023/12/23 07:42:41;;;;;;;0.50;0.40;;;;;4.30;93506.00;;;;7387192;19;20152;-75
2023/12/23 07:45:11;;;;;;;0.33;0.33;;;;;4.30;93513.00;;;;7390377;19;20141;-74
2023/12/23 07:47:46;;;;;;;0.83;0.53;;;;;4.40;93495.00;;;;7390891;19;20172;-74
2023/12/23 07:50:14;;;;;;;0.50;0.50;;;;;4.50;93492.00;;;;7390406;19;20149;-74
2023/12/23 07:52:51;;;;;;;1.10;0.37;;;;;4.50;93474.00;;;;7390299;19;21731;-74
2023/12/23 07:55:20;;;;;;;0.67;0.50;;;;;4.40;93506.00;;;;7391108;19;20144;-74
2023/12/23 07:57:59;;;;;;;0.73;0.70;;;;;4.40;93482.00;;;;7391362;19;20192;-75
2023/12/23 08:00:27;;;;;;;1.30;0.50;;;;;4.30;93489.00;;;;7388490;19;20149;-74
2023/12/23 08:03:01;;;;;;;1.80;0.57;;;;;4.40;93474.00;;;;7389099;19;20562;-74
2023/12/23 08:05:36;;;;;;;1.80;0.70;;;;;4.40;93523.00;;;;7390121;19;20158;-75
2023/12/23 08:08:17;;;;;;;0.40;0.40;;;;;4.40;93498.00;;;;7389623;19;20182;-72
2023/12/23 08:10:45;;;;;;;1.83;0.50;;;;;4.40;93487.00;;;;7388750;19;20174;-75
2023/12/23 08:13:20;;;;;;;0.43;0.40;;;;;4.40;93506.00;;;;7389725;19;20165;-74
2023/12/23 08:15:51;;;;;;;0.30;0.30;;;;;4.40;93495.00;;;;7388643;19;20151;-76
2023/12/23 08:18:26;;;;;;;0.30;0.30;;;;;4.50;93513.00;;;;7389552;19;20140;-75
2023/12/23 08:21:03;;;;;;;1.90;0.10;;;;;4.50;93508.00;;;;7389012;19;20613;-74
2023/12/23 08:23:45;;;;;;;0.70;0.30;;;;;4.50;93503.00;;;;7387667;19;20168;-74
2023/12/23 08:26:20;;;;;;;0.77;0.20;;;;;4.40;93507.00;;;;7389350;19;20507;-75
2023/12/23 08:28:48;;;;;;;0.20;0.20;;;;;4.50;93501.00;;;;7389736;19;20216;-74
2023/12/23 08:31:24;;;;;;;0.97;0.30;;;;;4.40;93528.00;;;;7390286;19;20129;-75
2023/12/23 08:33:54;;;;;;;1.07;0.30;;;;;4.50;93499.00;;;;7388569;19;20129;-76
2023/12/23 08:36:30;;;;;;;0.47;0.30;;;;;4.50;93515.00;;;;7387671;19;20161;-74
2023/12/23 08:38:57;;;;;;;0.57;0.43;;;;;4.40;93496.00;;;;7390816;19;20179;-75
2023/12/23 08:41:35;;;;;;;0.30;0.20;;;;;4.50;93487.00;;;;7389309;19;20622;-74
2023/12/23 08:44:04;;;;;;;0.40;0.23;;;;;4.40;93520.00;;;;7388535;19;20608;-75
2023/12/23 08:46:39;;;;;;;0.40;0.30;;;;;4.50;93501.00;;;;7386136;19;20169;-74
2023/12/23 08:49:07;;;;;;;0.30;0.20;;;;;4.50;93510.00;;;;7388572;19;20141;-74
2023/12/23 08:51:42;;;;;;;1.30;0.10;;;;;4.40;93492.00;;;;7386698;19;20483;-74
2023/12/23 08:54:16;;;;;;;2.13;0.50;;;;;4.40;93530.00;;;;7386782;19;20158;-75
2023/12/23 08:56:44;;;;;;;0.20;0.20;;;;;4.40;93513.00;;;;7388032;19;20350;-74
2023/12/23 08:59:22;;;;;;;0.20;0.20;;;;;4.40;93514.00;;;;7388791;19;20137;-74
2023/12/23 09:01:52;;;;;;;0.40;0.20;;;;;4.50;93511.00;;;;7386792;19;20484;-74
2023/12/23 09:04:28;;;;;;;0.60;0.20;;;;;4.50;93521.00;;;;7387473;19;20168;-74
2023/12/23 09:06:58;;;;;;;0.47;0.13;;;;;4.40;93516.00;;;;7388002;19;20145;-77
2023/12/23 09:09:36;;;;;;;0.27;0.27;;;;;4.40;93514.00;;;;7387192;19;20137;-78
2023/12/23 09:12:04;;;;;;;0.30;0.30;;;;;4.40;93507.00;;;;7384829;19;20145;-75
2023/12/23 09:14:42;;;;;;;0.20;0.20;;;;;4.40;93504.00;;;;7386162;19;20226;-76
2023/12/23 09:17:22;;;;;;;0.20;0.20;;;;;4.50;93511.00;;;;7386916;19;20155;-76
2023/12/23 09:19:53;;;;;;;0.30;0.30;;;;;4.50;93525.00;;;;7386748;19;20623;-77
2023/12/23 09:22:27;;;;;;;0.30;0.10;;;;;4.60;93527.00;;;;7385842;19;20165;-76
2023/12/23 09:25:02;;;;;;;0.27;0.20;;;;;4.50;93495.00;;;;7384087;19;20153;-80
2023/12/23 09:27:37;;;;;;;0.30;0.30;;;;;4.50;93548.00;;;;7386983;19;20152;-76
2023/12/23 09:30:12;;;;;;;0.00;0.00;;;;;4.50;93567.00;;;;7389080;19;20137;-78
2023/12/23 09:32:47;;;;;;;0.27;0.20;;;;;4.50;93555.00;;;;7386475;19;20151;-77
2023/12/23 09:35:25;;;;;;;0.30;0.20;;;;;4.50;93564.00;;;;7386588;19;20144;-78
2023/12/23 09:37:59;;;;;;;0.20;0.20;;;;;4.40;93560.00;;;;7386666;19;20132;-74
2023/12/23 09:40:34;;;;;;;0.00;0.00;;;;;4.40;93561.00;;;;7387418;19;20169;-77
2023/12/23 09:43:12;;;;;;;0.20;0.20;;;;;4.40;93574.00;;;;7384868;19;20148;-76
2023/12/23 09:45:41;;;;;;;0.07;0.07;;;;;4.40;93528.00;;;;7384330;19;20144;-76
2023/12/23 09:48:21;;;;;;;0.00;0.00;;;;;4.40;93563.00;;;;7384965;19;20557;-76
2023/12/23 09:50:56;;;;;;;0.97;0.70;;;;;4.40;93558.00;;;;7385748;19;20310;-76
2023/12/23 09:53:39;;;;;;;0.07;0.07;;;;;4.40;93588.00;;;;7386063;19;20152;-75
2023/12/23 09:56:15;;;;;;;0.63;0.20;;;;;4.40;93570.00;;;;7384546;19;20148;-76
2023/12/23 09:58:49;;;;;;;0.00;0.00;;;;;4.30;93488.00;;;;7384553;19;20144;-76
2023/12/23 10:01:18;;;;;;;0.20;0.20;;;;;4.40;93536.00;;;;7386791;19;20129;-74
2023/12/23 10:03:47;;;;;;;0.20;0.20;;;;;4.40;93563.00;;;;7384880;19;20143;-75
2023/12/23 10:06:22;;;;;;;2.73;0.10;;;;;4.40;93577.00;;;;7380960;19;20647;-75
2023/12/23 10:08:50;;;;;;;0.10;0.07;;;;;4.40;93581.00;;;;7384858;19;20149;-76
2023/12/23 10:11:29;;;;;;;0.10;0.10;;;;;4.40;93615.00;;;;7382967;19;20473;-75
2023/12/23 10:14:04;;;;;;;0.10;0.10;;;;;4.30;93577.00;;;;7385459;19;20129;-75
2023/12/23 10:16:37;;;;;;;0.10;0.10;;;;;4.50;93560.00;;;;7384873;19;20184;-73
2023/12/23 10:19:21;;;;;;;0.40;0.10;;;;;4.60;93559.00;;;;7383035;19;20275;-74
2023/12/23 10:21:50;;;;;;;0.37;0.10;;;;;4.60;93574.00;;;;7383253;19;20523;-76
2023/12/23 10:24:36;;;;;;;0.53;0.30;;;;;4.60;93551.00;;;;7382159;19;20176;-76
2023/12/23 10:27:20;;;;;;;1.80;0.23;;;;;4.50;93561.00;;;;7384068;19;20539;-75
2023/12/23 10:29:59;;;;;;;0.20;0.10;;;;;4.40;93590.00;;;;7384356;19;20156;-74
2023/12/23 10:32:31;;;;;;;0.20;0.20;;;;;4.50;93565.00;;;;7384309;19;20151;-74
2023/12/23 10:35:14;;;;;;;0.10;0.10;;;;;4.40;93531.00;;;;7384573;19;20147;-74
2023/12/23 10:37:43;;;;;;;0.20;0.20;;;;;4.50;93534.00;;;;7382477;19;20140;-74
2023/12/23 10:40:24;;;;;;;0.93;0.20;;;;;4.50;93543.00;;;;7383775;19;20727;-72
2023/12/23 10:43:01;;;;;;;0.60;0.30;;;;;4.50;93543.00;;;;7383259;19;20181;-74
2023/12/23 10:45:37;;;;;;;0.10;0.10;;;;;4.50;93516.00;;;;7382947;19;20623;-74
2023/12/23 10:48:08;;;;;;;0.23;0.23;;;4.40;99.90;4.60;93503.00;;;;7382819;19;20149;-73
2023/12/23 10:50:48;;;;;;;0.07;0.07;;;4.50;99.90;4.50;93519.00;;;;7381713;19;20652;-74
2023/12/23 10:53:26;;;;;;;0.30;0.30;;;4.50;99.90;4.40;93487.00;;;;7384032;19;20161;-71
2023/12/23 10:55:54;;;;;;;2.13;1.07;;;4.40;99.90;4.40;93488.00;;;;7376963;19;20505;-75
2023/12/23 10:58:31;;;;;;;0.10;0.10;;;4.50;50.90;4.50;93493.00;;;;7382536;19;20153;-74
2023/12/23 11:01:11;;;;;;;1.87;0.70;;;4.50;99.90;4.50;93533.00;;;;7382816;19;20153;-74
2023/12/23 11:03:51;;;;;;;0.20;0.20;;;4.50;99.90;4.50;93460.00;;;;7381734;19;20121;-73
2023/12/23 11:06:33;;;;;;;0.97;0.23;;;4.50;99.90;4.50;93500.00;;;;7382764;19;20148;-73
2023/12/23 11:09:04;;;;;;;0.27;0.20;;;4.50;1.00;4.60;93520.00;;;;7382373;19;20133;-73
2023/12/23 11:11:42;;;;;;;0.20;0.20;;;4.50;1.00;4.60;93515.00;;;;7387578;19;20132;-75
2023/12/23 11:14:10;;;;;;;0.10;0.07;;;;;4.60;93541.00;;;;7384763;19;20145;-74
2023/12/23 11:16:39;;;;;;;0.10;0.10;;;4.50;1.00;4.70;93523.00;;;;7388042;19;20467;-74
2023/12/23 11:19:13;;;;;;;0.17;0.10;;;;;4.60;93548.00;;;;7390337;19;20148;-72
2023/12/23 11:21:43;;;;;;;0.17;0.10;;;;;4.70;93531.00;;;;7387379;19;20141;-75
2023/12/23 11:24:33;;;;;;;0.30;0.20;;;;;4.60;93524.00;;;;7387877;19;20156;-75
2023/12/23 11:27:04;;;;;;;0.50;0.17;;;;;4.80;93548.00;;;;7388801;19;20140;-75
2023/12/23 11:29:39;;;;;;;0.20;0.20;;;;;4.80;93538.00;;;;7388489;19;20494;-72
2023/12/23 11:32:14;;;;;;;2.73;0.20;;;;;4.80;93502.00;;;;7389801;19;20262;-74
2023/12/23 11:34:44;;;;;;;0.57;0.13;;;;;4.80;93535.00;;;;7388402;19;20148;-76
2023/12/23 11:37:55;;;;;;;0.10;0.10;;;;;4.70;93512.00;;;;7389149;19;20145;-74
2023/12/23 11:40:25;;;;;;;0.10;0.10;;;;;4.80;93550.00;;;;7386784;19;20151;-75
2023/12/23 11:42:59;;;;;;;0.23;0.10;;;;;4.80;93510.00;;;;7390415;19;20189;-76
2023/12/23 11:45:27;;;;;;;1.80;0.30;;;;;4.70;93526.00;;;;7389078;19;20129;-74
2023/12/23 11:48:02;;;;;;;0.07;0.07;;;;;4.80;93495.00;;;;7389262;19;20753;-76
2023/12/23 11:50:30;;;;;;;0.37;0.20;;;;;4.90;93494.00;;;;7388753;19;20151;-76
2023/12/23 11:53:05;;;;;;;0.10;0.10;;;;;4.70;93496.00;;;;7388727;19;20148;-74
2023/12/23 11:55:41;;;;;;;0.20;0.20;;;;;4.80;93491.00;;;;7389064;19;20145;-74
2023/12/23 11:58:19;;;;;;;0.13;0.13;;;;;4.80;93464.00;;;;7388294;19;20156;-76
2023/12/23 12:00:53;;;;;;;0.20;0.20;;;;;4.90;93484.00;;;;7388353;19;20223;-74
2023/12/23 12:03:29;;;;;;;1.20;0.73;;;;;4.80;93526.00;;;;7388817;19;20612;-75
2023/12/23 12:06:02;;;;;;;0.20;0.20;;;;;4.90;93498.00;;;;7388292;19;20140;-74
2023/12/23 12:08:37;;;;;;;0.00;0.00;;;;;4.70;93529.00;;;;7388726;19;20142;-73
2023/12/23 12:11:12;;;;;;;1.03;0.67;;;;;5.00;93518.00;;;;7389479;19;20147;-74
2023/12/23 12:13:44;;;;;;;0.70;0.20;;;;;4.80;93523.00;;;;7389975;19;20494;-74
2023/12/23 12:16:18;;;;;;;2.13;1.37;;;;;4.90;93506.00;;;;7387621;19;20547;-75
2023/12/23 12:18:53;;;;;;;0.47;0.40;;;;;4.90;93481.00;;;;7388863;19;20125;-76
2023/12/23 12:21:27;;;;;;;2.57;1.50;;;;;4.80;93496.00;;;;7387654;19;20152;-75
2023/12/23 12:24:02;;;;;;;0.23;0.23;;;;;4.80;93491.00;;;;7387012;19;20248;-76
2023/12/23 12:26:46;;;;;;;2.10;0.57;;;;;4.80;93492.00;;;;7388178;19;20608;-74
2023/12/23 12:29:22;;;;;;;2.00;1.13;;;;;4.90;93512.00;;;;7388122;19;20177;-75
2023/12/23 12:31:59;;;;;;;0.63;0.63;;;;;4.80;93493.00;;;;7391112;19;20128;-75
2023/12/23 12:34:43;;;;;;;0.40;0.40;;;;;4.80;93488.00;;;;7387899;19;20137;-74
2023/12/23 12:37:17;;;;;;;0.33;0.30;;;;;4.80;93494.00;;;;7385681;19;20647;-76
2023/12/23 12:39:52;;;;;;;1.17;0.73;;;;;4.90;93496.00;;;;7386046;19;20140;-77
2023/12/23 12:42:35;;;;;;;0.10;0.10;;;;;4.90;93496.00;;;;7386983;19;20714;-75
2023/12/23 12:45:11;;;;;;;0.30;0.30;;;;;4.80;93489.00;;;;7387282;19;20152;-78
2023/12/23 12:47:40;;;;;;;0.57;0.20;;;;;4.70;93484.00;;;;7388487;19;20141;-78
2023/12/23 12:50:18;;;;;;;2.43;0.87;;;;;4.90;93508.00;;;;7385688;19;20143;-80
2023/12/23 12:53:01;;;;;;;0.00;0.00;;;;;4.90;93496.00;;;;7388135;19;20136;-77
2023/12/23 12:55:36;;;;;;;0.33;0.33;;;;;5.00;93497.00;;;;7385505;19;20173;-75